Colchester, VT

12:51 EDT le 30 septembre 2016 (GMT -0400)
Colbert st | | Change Station

Alt. 435 ft 44.51 °N, 73.13 °W | Updated 25 seconds ago

Mostly Cloudy
Nuageux
63.0 ° F
Paraît 63.0 ° F
N
2.2
Vent Variable Vent de NE

Aujourd'hui
Haut(e) -- | Bas -- ° F
--% Risque de précip.
Hier
Haut(e) -- | Bas -- ° F
Precip. -- pouce
Pression 30.48 pouce
Visibilité 10.0 Miles terrestres
Nuages Nuageux 15000 ft
Nuageux 20000 ft
Point de rosée 44 ° F
Humidité 49%
Précipitations 0.00 pouce
Profondeur de la couche neigeuse Non disponible.
6:49 AM 6:34 PM
Lune descendante, 0% visible
METAR KBTV 301554Z 14006KT 10SM BKN150 BKN200 17/03 A3047 RMK AO2 SLP319 T01670033
Pression 30.48 pouce
Visibilité 10.0 Miles terrestres
Nuages Nuageux 15000 ft
Nuageux 20000 ft
Point de rosée 44 ° F
Humidité 49%
Précipitations 0.00 pouce
Profondeur de la couche neigeuse Non disponible.
6:49 AM 6:34 PM
Lune descendante, 0% visible
METAR KBTV 301554Z 14006KT 10SM BKN150 BKN200 17/03 A3047 RMK AO2 SLP319 T01670033

10-Day Weather Forecast

Almanac

Astronomie

Sep. 30, 2016 Lever Coucher
Temps réel
Crépuscule civil
Crépuscule nautique
Crépuscule astronomique
Lune
Durée de lumière visible
Longueur du jour
Tomorrow will be .
, % of the Moon is Illuminated

Extrêmes aujourd'hui

State Highs State Lows

Community

WunderPhotos

Upload Photos

1,942,748 Photos téléchargées !

WunderBlog® & News

Nearby

Qualité de l'air

  Qualité de l'air Indice de la qualité de l'air Polluant
Not available.

Épaisseur de neige

Station Depth Altitude

Activité sismique

Ville Distance Mag. Time & Date
Minimum magnitude displayed is 2.5.

Températures des eaux côtières

Lieu Température

Stations

Stations météo à proximité

Emplacement de la station Température Refroidissement éolien Point de rosée Humidité Vent Precip. Alt. Mise à jour Type
                   

Watches & Warnings

There are currently no watches in effect.